Time;durP1;ratioP1;P1;durP2;ratioP2;P2;SDS_P1;SDS_P2;PMS_P1;PMS_P2;Temp;Humidity;BMP_temperature;BMP_pressure;BME280_temperature;BME280_humidity;BME280_pressure;Samples;Min_cycle;Max_cycle;Signal;HPM_P1;HPM_P2
2023/09/13 00:00:38;;;;;;;10.50;2.95;;;;;;;;;;5033538;28;20146;-80
2023/09/13 00:03:04;;;;;;;9.98;2.92;;;;;;;;;;5015501;28;20053;-81
2023/09/13 00:05:30;;;;;;;9.80;2.83;;;;;;;;;;4999280;28;20041;-81
2023/09/13 00:07:56;;;;;;;11.00;2.80;;;;;;;;;;5015842;28;20037;-81
2023/09/13 00:10:22;;;;;;;10.80;2.95;;;;;;;;;;5015820;28;20596;-81
2023/09/13 00:12:48;;;;;;;11.88;2.70;;;;;;;;;;5030706;28;20053;-81
2023/09/13 00:15:14;;;;;;;10.60;2.67;;;;;;;;;;5033424;28;20045;-81
2023/09/13 00:17:40;;;;;;;8.73;2.53;;;;;;;;;;5014005;28;20485;-80
2023/09/13 00:20:07;;;;;;;8.77;2.60;;;;;;;;;;5027602;28;20068;-81
2023/09/13 00:22:33;;;;;;;10.35;2.35;;;;;;;;;;5013443;28;20050;-81
2023/09/13 00:24:59;;;;;;;6.18;2.25;;;;;;;;;;4996369;28;20054;-80
2023/09/13 00:27:26;;;;;;;6.88;2.63;;;;;;;;;;4995912;28;20054;-80
2023/09/13 00:29:53;;;;;;;7.30;2.45;;;;;;;;;;4995141;28;20054;-80
2023/09/13 00:32:19;;;;;;;8.07;2.80;;;;;;;;;;4996022;28;20347;-80
2023/09/13 00:34:45;;;;;;;9.77;2.67;;;;;;;;;;5022458;28;20103;-80
2023/09/13 00:37:11;;;;;;;8.40;2.58;;;;;;;;;;5015131;28;20048;-80
2023/09/13 00:39:37;;;;;;;11.57;2.67;;;;;;;;;;5014999;28;20045;-81
2023/09/13 00:42:03;;;;;;;8.23;2.33;;;;;;;;;;5015054;28;20153;-81
2023/09/13 00:44:29;;;;;;;6.47;2.45;;;;;;;;;;5032714;28;20053;-81
2023/09/13 00:46:55;;;;;;;10.73;2.92;;;;;;;;;;5030015;28;20045;-81
2023/09/13 00:49:21;;;;;;;7.45;2.30;;;;;;;;;;5014859;28;20049;-81
2023/09/13 00:51:48;;;;;;;7.38;2.30;;;;;;;;;;5012674;28;20490;-79
2023/09/13 00:54:14;;;;;;;10.02;2.60;;;;;;;;;;4996574;28;20140;-80
2023/09/13 00:56:41;;;;;;;6.03;2.40;;;;;;;;;;4989087;28;20037;-80
2023/09/13 00:59:09;;;;;;;8.55;2.38;;;;;;;;;;5013683;28;20053;-80
2023/09/13 01:01:35;;;;;;;10.95;2.55;;;;;;;;;;4998879;28;20049;-79
2023/09/13 01:04:02;;;;;;;8.18;2.53;;;;;;;;;;5027461;28;20048;-78
2023/09/13 01:06:28;;;;;;;8.35;2.67;;;;;;;;;;5039907;28;20053;-80
2023/09/13 01:08:54;;;;;;;8.80;2.70;;;;;;;;;;5039848;28;20037;-79
2023/09/13 01:11:20;;;;;;;11.20;2.50;;;;;;;;;;5034837;28;20156;-78
2023/09/13 01:13:47;;;;;;;8.55;2.45;;;;;;;;;;5024578;28;20069;-80
2023/09/13 01:16:33;;;;;;;7.45;2.47;;;;;;;;;;5011223;28;20049;-80
2023/09/13 01:19:02;;;;;;;10.68;2.70;;;;;;;;;;5031304;28;20049;-80
2023/09/13 01:21:32;;;;;;;9.43;2.78;;;;;;;;;;5031277;28;20490;-80
2023/09/13 01:24:04;;;;;;;11.13;2.70;;;;;;;;;;5014284;28;20465;-80
2023/09/13 01:26:44;;;;;;;7.85;2.22;;;;;;;;;;5014917;28;20486;-80
2023/09/13 01:29:13;;;;;;;7.75;2.53;;;;;;;;;;5015099;28;20041;-81
2023/09/13 01:31:39;;;;;;;7.28;2.28;;;;;;;;;;5032622;28;20041;-81
2023/09/13 01:34:05;;;;;;;8.95;2.55;;;;;;;;;;5031251;28;20056;-80
2023/09/13 01:36:31;;;;;;;9.18;2.50;;;;;;;;;;5030307;28;20060;-80
2023/09/13 01:38:57;;;;;;;10.15;2.65;;;;;;;;;;5030934;28;20110;-79
2023/09/13 01:41:26;;;;;;;7.68;2.35;;;;;;;;;;5032116;28;20070;-80
2023/09/13 01:43:54;;;;;;;8.07;2.20;;;;;;;;;;5014476;28;20474;-79
2023/09/13 01:46:20;;;;;;;7.82;2.60;;;;;;;;;;5031750;28;20061;-80
2023/09/13 01:48:47;;;;;;;11.30;3.03;;;;;;;;;;5014530;28;20092;-80
2023/09/13 01:51:13;;;;;;;7.22;2.30;;;;;;;;;;5032279;28;20049;-80
2023/09/13 01:53:46;;;;;;;7.15;2.28;;;;;;;;;;5012439;28;20048;-80
2023/09/13 01:56:12;;;;;;;7.88;2.42;;;;;;;;;;4987106;28;20397;-80
2023/09/13 01:58:38;;;;;;;6.47;2.13;;;;;;;;;;5014092;28;20060;-80
2023/09/13 02:01:04;;;;;;;9.63;2.50;;;;;;;;;;5006380;28;20128;-80
2023/09/13 02:03:30;;;;;;;9.60;2.33;;;;;;;;;;5031351;28;20073;-80
2023/09/13 02:05:56;;;;;;;6.47;2.20;;;;;;;;;;5013866;28;20053;-80
2023/09/13 02:08:22;;;;;;;7.13;2.45;;;;;;;;;;5014270;28;20128;-80
2023/09/13 02:10:48;;;;;;;9.68;2.33;;;;;;;;;;5015704;28;20137;-80
2023/09/13 02:13:14;;;;;;;7.28;2.10;;;;;;;;;;5034728;28;20080;-80
2023/09/13 02:15:41;;;;;;;7.78;2.20;;;;;;;;;;5017295;28;20516;-80
2023/09/13 02:18:07;;;;;;;9.25;2.10;;;;;;;;;;5035623;28;20045;-80
2023/09/13 02:20:34;;;;;;;6.63;2.33;;;;;;;;;;5017702;28;20048;-80
2023/09/13 02:23:00;;;;;;;9.77;2.45;;;;;;;;;;5035383;28;20050;-81
2023/09/13 02:25:26;;;;;;;8.73;2.10;;;;;;;;;;5018106;28;20473;-82
2023/09/13 02:27:52;;;;;;;6.20;2.20;;;;;;;;;;5035105;28;20042;-82
2023/09/13 02:30:18;;;;;;;8.70;2.50;;;;;;;;;;5016918;28;20485;-81
2023/09/13 02:32:44;;;;;;;10.93;2.28;;;;;;;;;;5035139;28;20047;-81
2023/09/13 02:35:11;;;;;;;8.68;2.40;;;;;;;;;;5017209;28;20047;-80
2023/09/13 02:37:37;;;;;;;11.13;2.90;;;;;;;;;;5017272;28;20053;-81
2023/09/13 02:40:05;;;;;;;9.13;2.10;;;;;;;;;;5035130;28;20402;-81
2023/09/13 02:42:31;;;;;;;9.80;2.45;;;;;;;;;;5000803;28;20042;-80
2023/09/13 02:44:58;;;;;;;8.35;2.55;;;;;;;;;;5000648;28;20041;-80
2023/09/13 02:47:23;;;;;;;6.22;2.30;;;;;;;;;;5017010;28;20168;-80
2023/09/13 02:49:49;;;;;;;10.40;2.58;;;;;;;;;;5035033;28;20089;-80
2023/09/13 02:52:18;;;;;;;6.97;2.20;;;;;;;;;;5033649;28;20367;-81
2023/09/13 02:54:44;;;;;;;10.15;2.33;;;;;;;;;;5016275;28;20041;-80
2023/09/13 02:57:10;;;;;;;7.22;2.50;;;;;;;;;;5025760;28;20103;-80
2023/09/13 02:59:36;;;;;;;9.60;2.40;;;;;;;;;;5033333;28;20441;-81
2023/09/13 03:02:02;;;;;;;8.50;2.30;;;;;;;;;;5034013;28;20049;-81
2023/09/13 03:04:28;;;;;;;9.77;2.70;;;;;;;;;;5016683;28;20098;-81
2023/09/13 03:06:54;;;;;;;9.45;2.60;;;;;;;;;;5016949;28;20094;-80
2023/09/13 03:09:20;;;;;;;9.38;2.42;;;;;;;;;;5035048;28;20059;-80
2023/09/13 03:11:46;;;;;;;8.70;2.25;;;;;;;;;;5035394;28;20397;-81
2023/09/13 03:14:12;;;;;;;8.07;2.40;;;;;;;;;;5000791;28;20398;-80
2023/09/13 03:16:38;;;;;;;9.50;2.30;;;;;;;;;;5034527;28;20117;-81
2023/09/13 03:19:05;;;;;;;9.75;2.47;;;;;;;;;;5000331;28;20045;-81
2023/09/13 03:21:32;;;;;;;10.73;2.40;;;;;;;;;;5033476;28;20398;-81
2023/09/13 03:23:58;;;;;;;9.18;2.70;;;;;;;;;;5031969;28;20058;-80
2023/09/13 03:26:25;;;;;;;8.98;2.30;;;;;;;;;;5015704;28;20081;-81
2023/09/13 03:28:55;;;;;;;8.93;2.30;;;;;;;;;;5016966;28;20394;-81
2023/09/13 03:31:22;;;;;;;6.60;2.40;;;;;;;;;;5034242;28;20045;-81
2023/09/13 03:33:48;;;;;;;8.93;2.33;;;;;;;;;;5016352;28;20046;-81
2023/09/13 03:36:15;;;;;;;8.75;2.40;;;;;;;;;;5016880;28;20376;-82
2023/09/13 03:38:42;;;;;;;8.82;2.30;;;;;;;;;;5034384;28;20052;-81
2023/09/13 03:41:12;;;;;;;8.63;2.40;;;;;;;;;;5033077;28;20434;-80
2023/09/13 03:43:39;;;;;;;9.60;2.42;;;;;;;;;;5013704;28;20045;-80
2023/09/13 03:46:06;;;;;;;6.43;2.10;;;;;;;;;;5033751;28;20409;-80
2023/09/13 03:48:32;;;;;;;7.72;2.13;;;;;;;;;;5014930;28;20088;-80
2023/09/13 03:50:58;;;;;;;10.27;2.35;;;;;;;;;;5033131;28;20045;-80
2023/09/13 03:53:25;;;;;;;6.63;2.08;;;;;;;;;;5015985;28;20045;-80
2023/09/13 03:55:54;;;;;;;7.13;2.05;;;;;;;;;;5010801;28;20041;-81
2023/09/13 03:58:20;;;;;;;10.05;2.70;;;;;;;;;;5015093;28;20132;-81
2023/09/13 04:00:47;;;;;;;10.00;2.35;;;;;;;;;;5014865;28;20410;-81
2023/09/13 04:03:14;;;;;;;10.40;2.30;;;;;;;;;;5015659;28;20489;-80
2023/09/13 04:05:40;;;;;;;7.47;2.00;;;;;;;;;;5033091;28;20092;-81
2023/09/13 04:08:06;;;;;;;9.23;2.30;;;;;;;;;;5033368;28;20052;-81
2023/09/13 04:10:32;;;;;;;7.93;2.50;;;;;;;;;;5015548;28;20037;-81
2023/09/13 04:12:58;;;;;;;7.75;2.22;;;;;;;;;;5032548;28;20120;-80
2023/09/13 04:15:24;;;;;;;10.27;2.63;;;;;;;;;;5015304;28;20072;-81
2023/09/13 04:17:51;;;;;;;10.63;2.60;;;;;;;;;;5033065;28;20045;-81
2023/09/13 04:20:17;;;;;;;10.13;2.38;;;;;;;;;;5033175;28;20065;-79
2023/09/13 04:22:43;;;;;;;10.50;2.47;;;;;;;;;;4998215;28;20393;-80
2023/09/13 04:25:10;;;;;;;9.82;2.42;;;;;;;;;;5014887;28;20548;-80
2023/09/13 04:27:36;;;;;;;9.27;2.88;;;;;;;;;;5031224;28;20060;-79
2023/09/13 04:30:02;;;;;;;8.95;2.22;;;;;;;;;;4998002;28;20045;-80
2023/09/13 04:32:28;;;;;;;15.02;3.13;;;;;;;;;;5014324;28;20053;-80
2023/09/13 04:34:55;;;;;;;12.15;3.00;;;;;;;;;;5014023;28;20212;-80
2023/09/13 04:37:21;;;;;;;10.63;2.60;;;;;;;;;;5015248;28;20050;-80
2023/09/13 04:39:47;;;;;;;12.13;2.90;;;;;;;;;;4998940;28;20556;-80
2023/09/13 04:42:14;;;;;;;9.70;2.80;;;;;;;;;;5031930;28;20045;-80
2023/09/13 04:44:40;;;;;;;11.73;2.88;;;;;;;;;;5030846;28;20045;-80
2023/09/13 04:47:06;;;;;;;7.93;2.72;;;;;;;;;;5031861;28;20040;-80
2023/09/13 04:49:32;;;;;;;10.88;3.20;;;;;;;;;;5014426;28;20080;-80
2023/09/13 04:51:59;;;;;;;7.78;2.55;;;;;;;;;;5014479;28;20037;-80
2023/09/13 04:54:25;;;;;;;7.30;2.40;;;;;;;;;;5012420;28;20041;-80
2023/09/13 04:56:52;;;;;;;9.95;2.85;;;;;;;;;;5013294;28;20045;-80
2023/09/13 04:59:18;;;;;;;7.45;2.63;;;;;;;;;;5012178;28;20096;-80
2023/09/13 05:01:44;;;;;;;8.48;2.42;;;;;;;;;;5031597;28;20125;-80
2023/09/13 05:04:11;;;;;;;10.32;3.03;;;;;;;;;;5032010;28;20056;-80
2023/09/13 05:06:37;;;;;;;10.93;2.70;;;;;;;;;;5014756;28;20128;-79
2023/09/13 05:09:03;;;;;;;8.75;2.90;;;;;;;;;;5036238;28;20041;-76
2023/09/13 05:11:29;;;;;;;9.35;2.65;;;;;;;;;;5037829;28;20042;-75
2023/09/13 05:14:14;;;;;;;8.32;2.90;;;;;;;;;;5016220;28;20052;-76
2023/09/13 05:16:41;;;;;;;9.55;2.85;;;;;;;;;;5013565;28;20033;-76
2023/09/13 05:19:07;;;;;;;8.02;2.67;;;;;;;;;;5031522;28;20063;-76
2023/09/13 05:21:33;;;;;;;9.05;2.80;;;;;;;;;;5030323;28;20132;-77
2023/09/13 05:23:59;;;;;;;9.27;2.80;;;;;;;;;;5013499;28;20107;-76
2023/09/13 05:26:25;;;;;;;9.40;2.92;;;;;;;;;;5032615;28;20057;-76
2023/09/13 05:28:51;;;;;;;10.85;2.95;;;;;;;;;;5032123;28;20055;-76
2023/09/13 05:31:17;;;;;;;9.50;3.17;;;;;;;;;;5032741;28;20049;-76
2023/09/13 05:33:43;;;;;;;9.57;2.90;;;;;;;;;;5002129;28;20053;-76
2023/09/13 05:36:10;;;;;;;7.95;2.83;;;;;;;;;;4994766;28;20053;-76
2023/09/13 05:38:36;;;;;;;11.43;3.03;;;;;;;;;;4993453;28;20050;-77
2023/09/13 05:41:09;;;;;;;10.27;3.10;;;;;;;;;;5011620;28;20519;-77
2023/09/13 05:43:36;;;;;;;10.15;3.00;;;;;;;;;;4994391;28;20050;-77
2023/09/13 05:46:02;;;;;;;11.18;2.97;;;;;;;;;;5016141;28;20439;-78
2023/09/13 05:48:28;;;;;;;10.48;3.10;;;;;;;;;;5016555;28;20081;-78
2023/09/13 05:50:55;;;;;;;11.07;2.70;;;;;;;;;;5008784;28;20048;-78
2023/09/13 05:53:21;;;;;;;9.60;3.30;;;;;;;;;;5018158;28;20072;-77
2023/09/13 05:55:47;;;;;;;10.38;3.20;;;;;;;;;;5017821;28;20485;-78
2023/09/13 05:58:13;;;;;;;11.93;3.50;;;;;;;;;;5017766;28;20073;-78
2023/09/13 06:00:42;;;;;;;12.32;3.50;;;;;;;;;;5017684;28;20045;-78
2023/09/13 06:03:08;;;;;;;9.73;3.42;;;;;;;;;;5013612;28;20041;-77
2023/09/13 06:05:35;;;;;;;13.68;3.97;;;;;;;;;;5012887;28;20176;-77
2023/09/13 06:08:01;;;;;;;14.00;3.42;;;;;;;;;;5018163;28;20049;-77
2023/09/13 06:10:27;;;;;;;12.07;3.58;;;;;;;;;;5034640;28;20049;-77
2023/09/13 06:12:53;;;;;;;9.73;3.38;;;;;;;;;;5035014;28;20045;-77
2023/09/13 06:15:19;;;;;;;12.27;3.78;;;;;;;;;;5034378;28;20045;-77
2023/09/13 06:17:45;;;;;;;10.25;3.47;;;;;;;;;;5017508;28;20072;-77
2023/09/13 06:20:11;;;;;;;13.98;3.90;;;;;;;;;;5034813;28;20045;-78
2023/09/13 06:22:37;;;;;;;11.13;3.67;;;;;;;;;;5035326;28;20063;-77
2023/09/13 06:25:04;;;;;;;12.45;3.67;;;;;;;;;;5035279;28;20391;-78
2023/09/13 06:27:30;;;;;;;11.25;3.92;;;;;;;;;;5016246;28;20105;-77
2023/09/13 06:29:56;;;;;;;12.48;3.90;;;;;;;;;;5034906;28;20053;-77
2023/09/13 06:32:22;;;;;;;12.27;3.72;;;;;;;;;;5013621;28;20137;-77
2023/09/13 06:34:48;;;;;;;15.15;4.35;;;;;;;;;;4997000;28;20100;-78
2023/09/13 06:37:14;;;;;;;14.73;3.80;;;;;;;;;;5015038;28;20201;-77
2023/09/13 06:39:41;;;;;;;13.43;3.85;;;;;;;;;;5001739;28;20128;-77
2023/09/13 06:42:07;;;;;;;14.73;3.85;;;;;;;;;;5032200;28;20045;-77
2023/09/13 06:44:33;;;;;;;16.02;3.75;;;;;;;;;;5016365;28;20152;-77
2023/09/13 06:46:59;;;;;;;16.23;3.80;;;;;;;;;;5016931;28;20064;-77
2023/09/13 06:49:26;;;;;;;15.63;3.75;;;;;;;;;;5008465;28;20656;-77
2023/09/13 06:51:52;;;;;;;14.60;3.70;;;;;;;;;;5016325;28;20056;-77
2023/09/13 06:54:21;;;;;;;16.35;3.78;;;;;;;;;;5032351;28;20469;-76
2023/09/13 06:56:47;;;;;;;11.32;3.58;;;;;;;;;;5015245;28;20041;-76
2023/09/13 06:59:13;;;;;;;14.30;4.00;;;;;;;;;;5016198;28;20050;-78
2023/09/13 07:01:39;;;;;;;13.10;3.80;;;;;;;;;;4999712;28;20052;-76
2023/09/13 07:04:05;;;;;;;12.77;3.67;;;;;;;;;;5016260;28;20095;-78
2023/09/13 07:06:32;;;;;;;12.57;3.65;;;;;;;;;;5033545;28;20049;-76
2023/09/13 07:08:58;;;;;;;15.35;3.20;;;;;;;;;;5014831;28;20037;-77
2023/09/13 07:11:25;;;;;;;10.05;3.08;;;;;;;;;;5016002;28;20449;-77
2023/09/13 07:13:52;;;;;;;10.75;3.10;;;;;;;;;;5000140;28;20145;-78
2023/09/13 07:16:18;;;;;;;8.70;2.80;;;;;;;;;;5034249;28;20486;-77
2023/09/13 07:18:44;;;;;;;9.48;3.10;;;;;;;;;;5033080;28;20041;-78
2023/09/13 07:21:10;;;;;;;9.27;3.15;;;;;;;;;;5015707;28;20054;-78
2023/09/13 07:23:36;;;;;;;10.20;2.83;;;;;;;;;;5032905;28;20155;-78
2023/09/13 07:26:02;;;;;;;9.93;2.40;;;;;;;;;;5015887;28;20046;-78
2023/09/13 07:28:29;;;;;;;12.73;2.47;;;;;;;;;;4999900;28;20148;-78
2023/09/13 07:30:55;;;;;;;11.55;2.88;;;;;;;;;;5016333;28;20048;-78
2023/09/13 07:33:21;;;;;;;7.22;2.50;;;;;;;;;;5016084;28;20060;-77
2023/09/13 07:35:47;;;;;;;9.13;2.70;;;;;;;;;;5015145;28;20046;-77
2023/09/13 07:38:14;;;;;;;14.38;3.17;;;;;;;;;;5031955;28;20485;-77
2023/09/13 07:40:40;;;;;;;8.40;2.88;;;;;;;;;;5033718;28;20401;-77
2023/09/13 07:43:07;;;;;;;10.85;2.95;;;;;;;;;;5014246;28;20046;-78
2023/09/13 07:45:34;;;;;;;9.00;2.88;;;;;;;;;;4999619;28;20053;-77
2023/09/13 07:48:01;;;;;;;7.80;2.83;;;;;;;;;;5015871;28;20099;-78
2023/09/13 07:50:32;;;;;;;11.07;3.00;;;;;;;;;;5015503;28;20124;-78
2023/09/13 07:52:58;;;;;;;12.18;3.40;;;;;;;;;;5031522;28;20050;-78
2023/09/13 07:55:25;;;;;;;10.13;3.00;;;;;;;;;;5031018;28;20042;-77
2023/09/13 07:57:51;;;;;;;13.93;3.17;;;;;;;;;;5015536;28;20045;-77
2023/09/13 08:00:17;;;;;;;14.35;3.10;;;;;;;;;;5032070;28;20051;-76
2023/09/13 08:02:44;;;;;;;11.63;3.05;;;;;;;;;;5032098;28;20045;-77
2023/09/13 08:05:11;;;;;;;9.95;3.13;;;;;;;;;;5032775;28;20053;-78
2023/09/13 08:07:37;;;;;;;16.42;3.63;;;;;;;;;;5015853;28;20122;-78
2023/09/13 08:10:03;;;;;;;9.55;2.95;;;;;;;;;;5015372;28;20484;-78
2023/09/13 08:12:30;;;;;;;9.65;3.00;;;;;;;;;;5013837;28;20045;-79
2023/09/13 08:14:56;;;;;;;12.82;3.10;;;;;;;;;;5015953;28;20627;-79
2023/09/13 08:17:23;;;;;;;14.75;3.65;;;;;;;;;;5015054;28;20080;-78
2023/09/13 08:19:49;;;;;;;9.15;3.15;;;;;;;;;;5014507;28;20073;-78
2023/09/13 08:22:15;;;;;;;11.63;3.08;;;;;;;;;;4998147;28;20118;-77
2023/09/13 08:24:41;;;;;;;13.75;3.17;;;;;;;;;;5015184;28;20125;-77
2023/09/13 08:27:07;;;;;;;11.38;2.70;;;;;;;;;;5032556;28;20041;-77
2023/09/13 08:29:34;;;;;;;10.65;2.83;;;;;;;;;;5015026;28;20049;-77
2023/09/13 08:32:00;;;;;;;9.93;3.28;;;;;;;;;;5015021;28;20042;-77
2023/09/13 08:34:27;;;;;;;8.82;2.90;;;;;;;;;;5013392;28;20090;-78
2023/09/13 08:36:58;;;;;;;14.63;3.38;;;;;;;;;;5032001;28;20072;-81
2023/09/13 08:39:25;;;;;;;12.18;3.00;;;;;;;;;;5031931;28;20049;-82
2023/09/13 08:41:55;;;;;;;10.80;3.05;;;;;;;;;;5013357;28;20037;-81
2023/09/13 08:44:22;;;;;;;8.85;2.80;;;;;;;;;;5032327;28;20465;-81
2023/09/13 08:46:55;;;;;;;9.68;2.70;;;;;;;;;;5014619;28;20129;-81
2023/09/13 08:49:21;;;;;;;10.20;3.03;;;;;;;;;;5031308;28;20080;-81
2023/09/13 08:51:47;;;;;;;8.45;2.85;;;;;;;;;;5029700;28;20161;-81
2023/09/13 08:54:14;;;;;;;13.10;3.20;;;;;;;;;;5030148;28;20041;-81
2023/09/13 08:56:43;;;;;;;10.65;3.53;;;;;;;;;;5032516;28;20041;-81
2023/09/13 08:59:13;;;;;;;7.55;2.88;;;;;;;;;;5035721;28;20117;-79
2023/09/13 09:01:39;;;;;;;12.23;2.90;;;;;;;;;;5039937;28;20049;-79
2023/09/13 09:04:05;;;;;;;9.52;3.00;;;;;;;;;;5018747;28;20048;-81
2023/09/13 09:06:32;;;;;;;13.70;3.00;;;;;;;;;;5031329;28;20052;-81
2023/09/13 09:08:58;;;;;;;9.55;3.08;;;;;;;;;;5031136;28;20045;-81
2023/09/13 09:11:26;;;;;;;10.63;3.05;;;;;;;;;;5014563;28;20136;-80
2023/09/13 09:13:58;;;;;;;13.20;3.00;;;;;;;;;;5030791;28;20055;-80
2023/09/13 09:16:28;;;;;;;10.07;3.17;;;;;;;;;;5014686;28;20045;-80
2023/09/13 09:18:55;;;;;;;10.70;3.28;;;;;;;;;;5016566;28;20153;-81
2023/09/13 09:21:21;;;;;;;13.27;3.17;;;;;;;;;;5012275;28;20049;-81
2023/09/13 09:23:47;;;;;;;11.75;3.42;;;;;;;;;;5011964;28;20534;-82
2023/09/13 09:26:13;;;;;;;21.00;3.88;;;;;;;;;;5010786;28;20170;-80
2023/09/13 09:28:39;;;;;;;11.98;3.13;;;;;;;;;;5011009;28;20048;-80
2023/09/13 09:31:05;;;;;;;11.82;3.28;;;;;;;;;;5012727;28;20053;-81
2023/09/13 09:33:32;;;;;;;12.82;3.40;;;;;;;;;;5011049;28;20092;-81
2023/09/13 09:36:00;;;;;;;9.35;3.13;;;;;;;;;;5010961;28;20383;-80
2023/09/13 09:38:29;;;;;;;9.32;3.13;;;;;;;;;;5010626;28;20053;-81
2023/09/13 09:40:57;;;;;;;8.82;3.20;;;;;;;;;;5012183;28;20058;-80
2023/09/13 09:43:23;;;;;;;11.45;3.40;;;;;;;;;;4994323;28;20042;-81
2023/09/13 09:45:49;;;;;;;9.23;3.10;;;;;;;;;;5010281;28;20046;-80
2023/09/13 09:48:16;;;;;;;13.02;3.35;;;;;;;;;;5011460;28;20046;-81
2023/09/13 09:50:46;;;;;;;9.93;2.88;;;;;;;;;;5011007;28;20508;-81
2023/09/13 09:53:17;;;;;;;6.68;2.45;;;;;;;;;;5030237;28;20054;-81
2023/09/13 09:55:43;;;;;;;6.78;2.95;;;;;;;;;;5013703;28;20042;-81
2023/09/13 09:58:10;;;;;;;7.25;2.95;;;;;;;;;;5030419;28;20133;-81
2023/09/13 10:00:51;;;;;;;8.93;3.20;;;;;;;;;;5032060;28;20418;-81
2023/09/13 10:03:18;;;;;;;11.90;3.03;;;;;;;;;;5031797;28;20492;-80
2023/09/13 10:06:03;;;;;;;6.55;2.92;;;;;;;;;;5030269;28;20052;-80
2023/09/13 10:08:40;;;;;;;9.40;3.23;;;;;;;;;;5030831;28;20060;-80
2023/09/13 10:11:10;;;;;;;8.43;3.17;;;;;;;;;;5030625;28;20437;-80
2023/09/13 10:13:36;;;;;;;8.27;3.40;;;;;;;;;;5030287;28;20054;-80
2023/09/13 10:16:02;;;;;;;6.47;3.15;;;;;;;;;;5031886;28;20053;-80
2023/09/13 10:18:31;;;;;;;7.10;3.08;;;;;;;;;;5030273;28;20033;-81
2023/09/13 10:20:58;;;;;;;7.38;3.05;;;;;;;;;;5031447;28;20057;-81
2023/09/13 10:23:37;;;;;;;9.00;3.42;;;;;;;;;;5031149;28;20049;-80
2023/09/13 10:26:03;;;;;;;7.53;3.35;;;;;;;;;;5031768;28;20466;-81
2023/09/13 10:28:35;;;;;;;7.80;3.65;;;;;;;;;;5030819;28;20053;-80
2023/09/13 10:31:02;;;;;;;8.05;3.45;;;;;;;;;;5032109;28;20192;-81
2023/09/13 10:33:31;;;;;;;7.35;3.13;;;;;;;;;;5031947;28;20129;-80
2023/09/13 10:35:59;;;;;;;7.15;3.20;;;;;;;;;;5034071;28;20144;-80
2023/09/13 10:38:32;;;;;;;7.25;3.10;;;;;;;;;;5035368;28;20095;-81
2023/09/13 10:41:03;;;;;;;6.05;3.00;;;;;;;;;;5033736;28;20049;-80
2023/09/13 10:43:30;;;;;;;7.40;2.92;;;;;;;;;;5035121;28;20046;-81
2023/09/13 10:45:57;;;;;;;6.97;2.88;;;;;;;;;;5033937;28;20069;-81
2023/09/13 10:48:24;;;;;;;7.00;2.88;;;;;;;;;;5017195;28;20075;-81
2023/09/13 10:50:50;;;;;;;6.82;2.90;;;;;;;;;;4999045;28;20498;-81
2023/09/13 10:53:17;;;;;;;8.00;3.05;;;;;;;;;;4997763;28;20483;-81
2023/09/13 10:55:44;;;;;;;5.45;2.40;;;;;;;;;;5015846;28;20050;-80
2023/09/13 10:58:12;;;;;;;7.10;2.60;;;;;;;;;;5015265;28;20050;-80
2023/09/13 11:00:39;;;;;;;6.35;2.30;;;;;;;;;;5018023;28;20046;-81
2023/09/13 11:03:05;;;;;;;5.68;2.30;;;;;;;;;;5033884;28;20073;-82
2023/09/13 11:05:33;;;;;;;5.70;2.30;;;;;;;;;;5035103;28;20045;-81
2023/09/13 11:07:59;;;;;;;7.07;2.50;;;;;;;;;;5016833;28;20045;-80
2023/09/13 11:10:30;;;;;;;6.55;2.42;;;;;;;;;;5033283;28;20236;-81
2023/09/13 11:12:56;;;;;;;6.03;2.10;;;;;;;;;;5033228;28;20539;-80
2023/09/13 11:15:23;;;;;;;7.28;2.13;;;;;;;;;;5033290;28;20446;-80
2023/09/13 11:17:50;;;;;;;3.63;1.65;;;;;;;;;;5033241;28;20056;-81
2023/09/13 11:20:28;;;;;;;3.42;1.70;;;;;;;;;;5033761;28;20137;-81
2023/09/13 11:23:03;;;;;;;4.10;2.08;;;;;;;;;;5030282;28;20058;-81
2023/09/13 11:25:29;;;;;;;;;;;;;;;;;;5032641;28;20508;-80
2023/09/13 11:27:56;;;;;;;5.90;2.08;;;;;;;;;;5016743;28;19921;-80
2023/09/13 11:30:42;;;;;;;7.45;2.22;;;;;;;;;;5034254;28;20409;-80
2023/09/13 11:33:09;;;;;;;6.22;2.00;;;;;;;;;;5016575;28;20409;-81
2023/09/13 11:35:35;;;;;;;8.20;2.08;;;;;;;;;;5032792;28;20084;-81
2023/09/13 11:38:01;;;;;;;5.40;1.90;;;;;;;;;;5034280;28;20048;-82
2023/09/13 11:40:27;;;;;;;5.53;1.80;;;;;;;;;;5032752;28;20410;-81
2023/09/13 11:42:53;;;;;;;7.05;2.05;;;;;;;;;;5032296;28;20045;-80
2023/09/13 11:45:20;;;;;;;6.43;2.00;;;;;;;;;;5016119;28;20098;-81
2023/09/13 11:47:50;;;;;;;7.30;2.00;;;;;;;;;;5031941;28;20053;-81
2023/09/13 11:50:17;;;;;;;8.93;2.13;;;;;;;;;;5013594;28;20064;-81
2023/09/13 11:53:01;;;;;;;6.32;2.20;;;;;;;;;;5030377;28;20049;-80
2023/09/13 11:55:27;;;;;;;5.32;2.00;;;;;;;;;;5031678;28;20486;-81
2023/09/13 11:57:53;;;;;;;7.63;2.03;;;;;;;;;;5032543;28;20066;-81
2023/09/13 12:00:22;;;;;;;8.77;2.00;;;;;;;;;;5032419;28;20132;-81
2023/09/13 12:02:48;;;;;;;9.95;1.85;;;;;;;;;;5033764;28;20119;-80
2023/09/13 12:05:15;;;;;;;7.60;2.05;;;;;;;;;;5032797;28;20053;-81
2023/09/13 12:07:41;;;;;;;10.45;2.33;;;;;;;;;;5033709;28;20045;-81
2023/09/13 12:10:07;;;;;;;9.88;2.17;;;;;;;;;;5033722;28;20072;-81
2023/09/13 12:12:41;;;;;;;7.93;2.10;;;;;;;;;;5034023;28;20041;-80
2023/09/13 12:15:13;;;;;;;8.85;2.22;;;;;;;;;;5031786;28;20108;-81
2023/09/13 12:17:39;;;;;;;7.00;2.58;;;;;;;;;;5015891;28;20339;-80
2023/09/13 12:20:06;;;;;;;9.25;2.50;;;;;;;;;;5015772;28;20064;-80
2023/09/13 12:22:38;;;;;;;7.78;2.35;;;;;;;;;;5031831;28;20098;-80
2023/09/13 12:25:09;;;;;;;7.50;2.10;;;;;;;;;;5031954;28;20053;-80
2023/09/13 12:27:35;;;;;;;7.60;2.38;;;;;;;;;;5033331;28;20081;-80
2023/09/13 12:30:05;;;;;;;9.85;2.40;;;;;;;;;;5032310;28;20454;-80
2023/09/13 12:32:31;;;;;;;8.13;2.30;;;;;;;;;;5032012;28;20559;-80
2023/09/13 12:34:57;;;;;;;8.82;2.60;;;;;;;;;;5031792;28;20041;-82
2023/09/13 12:37:23;;;;;;;8.77;2.40;;;;;;;;;;5032024;28;20350;-80
2023/09/13 12:39:49;;;;;;;7.50;2.00;;;;;;;;;;5031967;28;20338;-80
2023/09/13 12:42:15;;;;;;;8.80;2.58;;;;;;;;;;5033720;28;20088;-81
2023/09/13 12:44:45;;;;;;;6.68;2.50;;;;;;;;;;5033254;28;20383;-80
2023/09/13 12:47:11;;;;;;;9.45;2.65;;;;;;;;;;5036585;28;20533;-78
2023/09/13 12:49:38;;;;;;;9.52;2.28;;;;;;;;;;5040103;28;20054;-80
2023/09/13 12:52:05;;;;;;;6.82;2.50;;;;;;;;;;5035052;28;20052;-79
2023/09/13 12:54:34;;;;;;;11.50;3.10;;;;;;;;;;5014902;28;20041;-79
2023/09/13 12:57:04;;;;;;;11.15;3.05;;;;;;;;;;5033485;28;20087;-80
2023/09/13 12:59:46;;;;;;;7.28;2.42;;;;;;;;;;5015250;28;20038;-80
2023/09/13 13:02:16;;;;;;;8.95;2.40;;;;;;;;;;5015422;28;20049;-80
2023/09/13 13:04:42;;;;;;;7.18;2.30;;;;;;;;;;5014867;28;20119;-80
2023/09/13 13:07:08;;;;;;;12.32;2.80;;;;;;;;;;5031464;28;20041;-80
2023/09/13 13:09:35;;;;;;;8.40;2.58;;;;;;;;;;5014927;28;20056;-80
2023/09/13 13:12:01;;;;;;;11.23;2.53;;;;;;;;;;5032713;28;20049;-81
2023/09/13 13:14:27;;;;;;;9.75;2.70;;;;;;;;;;5031704;28;20120;-81
2023/09/13 13:16:54;;;;;;;8.48;2.33;;;;;;;;;;5031414;28;20511;-81
2023/09/13 13:19:30;;;;;;;9.27;2.20;;;;;;;;;;5031496;28;20060;-81
2023/09/13 13:21:57;;;;;;;11.82;2.72;;;;;;;;;;5032492;28;20045;-80
2023/09/13 13:24:24;;;;;;;10.27;2.40;;;;;;;;;;5032514;28;20049;-80
2023/09/13 13:26:51;;;;;;;7.75;2.20;;;;;;;;;;5031786;28;20555;-81
2023/09/13 13:29:17;;;;;;;7.95;2.22;;;;;;;;;;5030818;28;20046;-80
2023/09/13 13:31:43;;;;;;;8.45;2.47;;;;;;;;;;5031343;28;20409;-81
2023/09/13 13:34:09;;;;;;;14.52;2.50;;;;;;;;;;5032614;28;20424;-80
2023/09/13 13:36:35;;;;;;;12.55;2.70;;;;;;;;;;5031243;28;20405;-80
2023/09/13 13:39:05;;;;;;;9.95;2.53;;;;;;;;;;5030095;28;20045;-80
2023/09/13 13:41:31;;;;;;;12.27;2.67;;;;;;;;;;5031581;28;20465;-80
2023/09/13 13:43:59;;;;;;;8.77;2.30;;;;;;;;;;5032120;28;20045;-81
2023/09/13 13:46:26;;;;;;;10.90;2.65;;;;;;;;;;5031811;28;20056;-81
2023/09/13 13:48:53;;;;;;;6.88;2.22;;;;;;;;;;5030624;28;20390;-81
2023/09/13 13:51:19;;;;;;;10.93;2.83;;;;;;;;;;5014305;28;20176;-80
2023/09/13 13:53:45;;;;;;;8.35;2.30;;;;;;;;;;5014027;28;20041;-81
2023/09/13 13:56:11;;;;;;;9.70;2.50;;;;;;;;;;5031025;28;20184;-80
2023/09/13 13:58:37;;;;;;;10.65;2.40;;;;;;;;;;5031626;28;20456;-81
2023/09/13 14:01:04;;;;;;;9.82;2.78;;;;;;;;;;5014600;28;20145;-80
2023/09/13 14:03:30;;;;;;;6.65;2.17;;;;;;;;;;5014077;28;20049;-80
2023/09/13 14:05:56;;;;;;;9.02;2.40;;;;;;;;;;5016028;28;20367;-81
2023/09/13 14:08:23;;;;;;;10.77;2.50;;;;;;;;;;5037537;28;20045;-81
2023/09/13 14:10:49;;;;;;;10.43;2.40;;;;;;;;;;5036780;28;20132;-79
2023/09/13 14:13:16;;;;;;;9.27;2.42;;;;;;;;;;5018957;28;20064;-80
2023/09/13 14:15:42;;;;;;;9.60;2.70;;;;;;;;;;5036835;28;20049;-79
2023/09/13 14:18:09;;;;;;;8.63;2.45;;;;;;;;;;5018725;28;20053;-80
2023/09/13 14:20:41;;;;;;;9.40;2.53;;;;;;;;;;5036102;28;20149;-80
2023/09/13 14:23:07;;;;;;;9.77;2.90;;;;;;;;;;5034734;28;20111;-79
2023/09/13 14:25:33;;;;;;;8.15;2.65;;;;;;;;;;5035966;28;20128;-80
2023/09/13 14:27:59;;;;;;;9.45;2.67;;;;;;;;;;5036446;28;20101;-79
2023/09/13 14:30:26;;;;;;;11.23;2.70;;;;;;;;;;5036661;28;20068;-81
2023/09/13 14:32:52;;;;;;;8.05;2.25;;;;;;;;;;5017972;28;20459;-81
2023/09/13 14:35:18;;;;;;;7.10;2.17;;;;;;;;;;5035346;28;20073;-81
2023/09/13 14:37:44;;;;;;;9.80;2.42;;;;;;;;;;5034875;28;20520;-81